Etusivu
METAR-TAF:

METAR-TAF

Lentoasemat :

Austin, Texas, Yhdysvallat

Leveyspiiri: 30-24-00N, Pituuspiiri: 097-34-25W, korkeus merenpinnasta: 189 m

Tämänhetkinen sää

Tämä raportti tehtiin 23 minuuttia sitten, kello 08.35 UTC
Tuuli 4 kn etelästä/lounaasta
Lämpötila 20°C
Kosteus 100%
Ilmanpaine 1017 hPa
Näkyvyys: 16.1 km
Hajanaisia pilviä 3600 ft:n korkeudessa

METAR: KEDC 260835Z AUTO 21004KT 10SM SCT036 20/20 A3004 RMK AO2

Aika: 02:58 (08:58 UTC)


TAF: puuttuu

Säähavainnot ja -ennusteet yli 4000 lentoasemalta (METAR- ja TAF-raportit).

Käytössä olevat sääasemat on merkitty karttaan keltaisilla ja punaisilla pisteillä.

Aseta hiiri pisteen päälle nähdäksesi sääaseman nimen.

Klikkaa sitten nähdäksesi säähavainnot ja -ennusteet.

Kartan vaihtaminen: klikkaa mustalla rastilla varustettuja vihreitä pisteitä, niin voit zoomata sisään; viivalla varustettua vihreää pistettä, niin voit zoomata ulos tai vihreitä nuolia, niin pääset viereisille kartoille.


METAR-TAF: